createdAt,value
2022-10-29T00:01:12.817Z,5.80
2022-10-29T00:03:41.164Z,5.73
2022-10-29T00:06:12.971Z,6.10
2022-10-29T00:08:43.288Z,6.83
2022-10-29T00:11:14.265Z,6.90
2022-10-29T00:13:43.721Z,12.20
2022-10-29T00:16:15.498Z,7.83
2022-10-29T00:18:44.481Z,7.20
2022-10-29T00:21:15.459Z,6.33
2022-10-29T00:23:45.724Z,6.70
2022-10-29T00:26:14.943Z,7.17
2022-10-29T00:28:43.644Z,6.50
2022-10-29T00:31:15.972Z,5.60
2022-10-29T00:33:44.364Z,4.73
2022-10-29T00:36:15.875Z,4.70
2022-10-29T00:38:46.228Z,4.60
2022-10-29T00:41:17.640Z,3.70
2022-10-29T00:43:51.331Z,4.40
2022-10-29T00:46:26.426Z,5.33
2022-10-29T00:48:57.664Z,6.10
2022-10-29T00:51:28.456Z,5.00
2022-10-29T00:54:03.500Z,6.10
2022-10-29T00:56:36.357Z,5.50
2022-10-29T00:59:06.713Z,6.30
2022-10-29T01:01:35.342Z,5.93
2022-10-29T01:04:05.325Z,7.33
2022-10-29T01:06:34.932Z,5.70
2022-10-29T01:09:04.849Z,6.77
2022-10-29T01:11:48.571Z,6.50
2022-10-29T01:14:33.856Z,6.80
2022-10-29T01:17:11.242Z,6.90
2022-10-29T01:20:15.115Z,6.80
2022-10-29T01:22:49.532Z,6.87
2022-10-29T01:25:49.907Z,6.30
2022-10-29T01:28:34.998Z,4.97
2022-10-29T01:31:29.216Z,5.03
2022-10-29T01:34:06.950Z,5.30
2022-10-29T01:36:43.171Z,5.97
2022-10-29T01:39:21.962Z,5.43
2022-10-29T01:41:56.161Z,5.90
2022-10-29T01:44:36.437Z,7.20
2022-10-29T01:47:12.423Z,7.07
2022-10-29T01:49:43.560Z,6.50
2022-10-29T01:52:16.232Z,7.13
2022-10-29T01:54:46.751Z,7.27
2022-10-29T01:57:31.020Z,7.27
2022-10-29T02:00:09.260Z,6.90
2022-10-29T02:03:06.262Z,8.50
2022-10-29T02:05:40.271Z,7.57
2022-10-29T02:08:21.809Z,6.93
2022-10-29T02:10:57.485Z,8.10
2022-10-29T02:13:34.266Z,7.97
2022-10-29T02:16:06.672Z,7.00
2022-10-29T02:18:43.314Z,7.87
2022-10-29T02:21:11.619Z,7.77
2022-10-29T02:23:40.083Z,8.13
2022-10-29T02:26:08.580Z,9.60
2022-10-29T02:28:36.929Z,9.03
2022-10-29T02:31:05.650Z,9.60
2022-10-29T02:33:33.940Z,8.53
2022-10-29T02:36:03.798Z,9.63
2022-10-29T02:38:32.061Z,8.93
2022-10-29T02:41:00.283Z,10.73
2022-10-29T02:43:28.507Z,11.50
2022-10-29T02:46:13.724Z,10.80
2022-10-29T02:48:42.234Z,11.70
2022-10-29T02:51:12.464Z,10.87
2022-10-29T02:53:40.806Z,10.37
2022-10-29T02:56:10.605Z,10.57
2022-10-29T02:58:38.982Z,11.27
2022-10-29T03:01:08.100Z,10.40
2022-10-29T03:03:36.960Z,10.97
2022-10-29T03:06:05.936Z,11.00
2022-10-29T03:08:35.774Z,11.43
2022-10-29T03:11:04.118Z,11.50
2022-10-29T03:13:32.472Z,11.50
2022-10-29T03:16:01.048Z,10.20
2022-10-29T03:18:29.495Z,12.00
2022-10-29T03:20:58.085Z,11.90
2022-10-29T03:23:26.373Z,13.00
2022-10-29T03:25:57.409Z,11.87
2022-10-29T03:28:28.097Z,10.67
2022-10-29T03:30:56.688Z,11.73
2022-10-29T03:33:26.672Z,10.63
2022-10-29T03:35:59.555Z,11.40
2022-10-29T03:38:28.609Z,12.70
2022-10-29T03:40:58.610Z,11.80
2022-10-29T03:43:27.246Z,11.63
2022-10-29T03:45:58.055Z,12.67
2022-10-29T03:48:27.337Z,12.10
2022-10-29T03:50:56.834Z,11.50
2022-10-29T03:53:25.815Z,13.63
2022-10-29T03:55:54.964Z,13.00
2022-10-29T03:58:25.098Z,11.33
2022-10-29T04:00:58.531Z,13.50
2022-10-29T04:03:28.404Z,12.00
2022-10-29T04:05:59.167Z,12.30
2022-10-29T04:08:27.555Z,11.90
2022-10-29T04:10:55.881Z,12.07
2022-10-29T04:13:25.589Z,12.93
2022-10-29T04:15:55.791Z,11.70
2022-10-29T04:18:24.982Z,12.00
2022-10-29T04:29:20.613Z,11.87
2022-10-29T04:31:49.103Z,10.40
2022-10-29T04:34:17.510Z,12.33
2022-10-29T04:36:45.865Z,12.90
2022-10-29T04:39:15.465Z,11.93
2022-10-29T04:41:45.517Z,10.90
2022-10-29T04:44:13.834Z,11.80
2022-10-29T04:46:43.524Z,9.87
2022-10-29T04:49:11.857Z,10.23
2022-10-29T04:51:40.638Z,11.20
2022-10-29T04:54:09.147Z,12.27
2022-10-29T04:56:37.442Z,10.27
2022-10-29T04:59:05.687Z,11.00
2022-10-29T05:04:09.279Z,11.10
2022-10-29T05:06:37.733Z,11.00
2022-10-29T05:09:06.583Z,11.37
2022-10-29T05:11:34.889Z,11.13
2022-10-29T05:14:03.391Z,12.13
2022-10-29T05:16:32.744Z,12.40
2022-10-29T05:19:01.215Z,13.10
2022-10-29T05:21:31.139Z,12.03
2022-10-29T05:23:59.744Z,11.60
2022-10-29T05:26:28.087Z,11.30
2022-10-29T05:28:56.521Z,12.03
2022-10-29T05:31:25.049Z,11.10
2022-10-29T05:33:55.575Z,11.70
2022-10-29T05:36:24.663Z,10.90
2022-10-29T05:38:54.324Z,11.43
2022-10-29T05:41:22.566Z,10.27
2022-10-29T05:43:51.584Z,11.60
2022-10-29T05:46:20.063Z,12.97
2022-10-29T05:48:48.343Z,12.27
2022-10-29T05:51:16.844Z,10.80
2022-10-29T05:53:45.157Z,12.60
2022-10-29T05:56:15.101Z,11.70
2022-10-29T05:58:43.521Z,13.30
2022-10-29T06:01:12.420Z,11.00
2022-10-29T06:03:40.946Z,13.60
2022-10-29T06:06:09.645Z,12.97
2022-10-29T06:08:38.068Z,11.90
2022-10-29T06:11:06.765Z,12.07
2022-10-29T06:13:36.556Z,12.53
2022-10-29T06:16:05.309Z,13.87
2022-10-29T06:18:35.269Z,14.10
2022-10-29T06:21:03.570Z,14.07
2022-10-29T06:23:32.027Z,14.43
2022-10-29T06:26:01.791Z,14.50
2022-10-29T06:28:33.609Z,13.87
2022-10-29T06:31:04.701Z,13.77
2022-10-29T06:33:33.028Z,13.60
2022-10-29T06:36:01.857Z,13.60
2022-10-29T06:38:30.251Z,12.87
2022-10-29T06:41:01.408Z,13.73
2022-10-29T06:43:29.745Z,12.97
2022-10-29T06:45:58.026Z,14.20
2022-10-29T06:48:27.744Z,13.53
2022-10-29T06:50:56.054Z,13.70
2022-10-29T06:53:25.057Z,14.23
2022-10-29T06:55:53.481Z,14.37
2022-10-29T06:58:22.679Z,13.60
2022-10-29T07:00:51.094Z,14.03
2022-10-29T07:03:21.240Z,13.23
2022-10-29T07:05:57.423Z,12.93
2022-10-29T07:08:25.988Z,14.47
2022-10-29T07:10:55.414Z,13.70
2022-10-29T07:13:24.277Z,13.27
2022-10-29T07:15:52.673Z,13.17
2022-10-29T07:18:20.978Z,15.20
2022-10-29T07:20:50.670Z,13.57
2022-10-29T07:23:19.019Z,14.40
2022-10-29T07:25:47.413Z,13.20
2022-10-29T07:28:18.136Z,14.47
2022-10-29T07:30:48.346Z,14.20
2022-10-29T07:33:17.183Z,15.50
2022-10-29T07:35:46.360Z,15.80
2022-10-29T07:38:16.236Z,15.40
2022-10-29T07:40:50.511Z,14.87
2022-10-29T07:43:20.624Z,15.47
2022-10-29T07:45:51.074Z,14.60
2022-10-29T07:48:20.796Z,15.07
2022-10-29T07:50:49.967Z,15.40
2022-10-29T07:53:19.881Z,14.97
2022-10-29T07:55:54.823Z,15.83
2022-10-29T07:58:24.323Z,15.50
2022-10-29T08:00:52.978Z,16.83
2022-10-29T08:03:21.550Z,16.00
2022-10-29T08:05:56.413Z,16.47
2022-10-29T08:08:27.268Z,15.97
2022-10-29T08:11:01.195Z,16.80
2022-10-29T08:13:30.196Z,15.13
2022-10-29T08:15:59.136Z,16.10
2022-10-29T08:18:27.580Z,15.73
2022-10-29T08:20:56.325Z,16.63
2022-10-29T08:23:26.168Z,17.47
2022-10-29T08:25:54.472Z,15.83
2022-10-29T08:28:25.679Z,16.83
2022-10-29T08:30:54.374Z,14.90
2022-10-29T08:33:22.775Z,16.70
2022-10-29T08:35:51.516Z,18.70
2022-10-29T08:38:19.949Z,16.37
2022-10-29T08:41:06.664Z,17.47
2022-10-29T08:44:04.572Z,17.40
2022-10-29T08:46:44.603Z,17.60
2022-10-29T08:49:19.490Z,16.63
2022-10-29T08:51:56.882Z,16.80
2022-10-29T08:54:31.352Z,18.00
2022-10-29T08:57:08.630Z,16.07
2022-10-29T08:59:44.775Z,16.67
2022-10-29T09:02:18.211Z,17.63
2022-10-29T09:04:46.788Z,17.90
2022-10-29T09:07:33.392Z,16.37
2022-10-29T09:10:12.492Z,15.67
2022-10-29T09:13:08.886Z,16.20
2022-10-29T09:15:57.718Z,17.40
2022-10-29T09:18:48.534Z,15.50
2022-10-29T09:21:30.592Z,15.20
2022-10-29T09:24:12.710Z,16.60
2022-10-29T09:26:57.082Z,17.00
2022-10-29T09:30:00.793Z,16.37
2022-10-29T09:32:34.979Z,13.70
2022-10-29T09:35:08.052Z,12.93
2022-10-29T09:37:45.113Z,15.57
2022-10-29T09:40:32.049Z,13.80
2022-10-29T09:43:06.306Z,13.73
2022-10-29T09:45:47.164Z,12.90
2022-10-29T09:48:25.464Z,14.00
2022-10-29T09:51:04.444Z,13.80
2022-10-29T09:53:32.968Z,13.30
2022-10-29T09:56:01.307Z,12.70
2022-10-29T09:58:29.946Z,11.60
2022-10-29T10:00:59.723Z,10.17
2022-10-29T10:03:35.250Z,10.53
2022-10-29T10:06:05.944Z,8.97
2022-10-29T10:08:36.719Z,8.90
2022-10-29T10:11:08.002Z,7.40
2022-10-29T10:13:40.259Z,10.63
2022-10-29T10:16:10.727Z,7.17
2022-10-29T10:21:15.420Z,7.70
2022-10-29T10:23:47.519Z,6.70
2022-10-29T10:26:35.257Z,6.80
2022-10-29T10:29:12.927Z,7.10
2022-10-29T10:31:44.442Z,7.90
2022-10-29T10:34:19.755Z,6.97
2022-10-29T10:36:53.317Z,6.70
2022-10-29T10:39:31.188Z,6.13
2022-10-29T10:42:03.602Z,6.10
2022-10-29T10:44:32.632Z,6.93
2022-10-29T10:47:10.966Z,6.07
2022-10-29T10:49:40.588Z,6.20
2022-10-29T10:52:20.653Z,5.73
2022-10-29T10:54:59.406Z,6.10
2022-10-29T10:57:33.431Z,5.90
2022-10-29T11:00:07.610Z,5.43
2022-10-29T11:02:49.194Z,6.03
2022-10-29T11:05:21.025Z,5.77
2022-10-29T11:08:02.507Z,4.90
2022-10-29T11:10:38.250Z,5.20
2022-10-29T11:13:15.102Z,4.97
2022-10-29T11:15:52.158Z,4.50
2022-10-29T11:18:30.215Z,4.10
2022-10-29T11:21:08.011Z,5.60
2022-10-29T11:23:48.954Z,5.40
2022-10-29T11:26:26.518Z,4.90
2022-10-29T11:29:03.716Z,4.70
2022-10-29T11:31:42.633Z,4.00
2022-10-29T11:34:19.719Z,4.77
2022-10-29T11:36:56.388Z,6.30
2022-10-29T11:39:32.069Z,4.63
2022-10-29T11:42:02.541Z,4.23
2022-10-29T11:44:38.366Z,4.07
2022-10-29T11:47:28.160Z,4.10
2022-10-29T11:50:16.280Z,4.23
2022-10-29T11:52:53.626Z,3.73
2022-10-29T11:55:34.579Z,3.77
2022-10-29T11:58:11.941Z,3.90
2022-10-29T12:00:59.635Z,3.90
2022-10-29T12:03:55.720Z,3.97
2022-10-29T12:06:34.029Z,4.97
2022-10-29T12:09:26.084Z,4.00
2022-10-29T12:12:05.269Z,3.60
2022-10-29T12:14:40.178Z,4.00
2022-10-29T12:17:14.901Z,3.00
2022-10-29T12:19:55.927Z,4.00
2022-10-29T12:22:38.427Z,3.43
2022-10-29T12:25:29.815Z,3.87
2022-10-29T12:28:11.755Z,3.93
2022-10-29T12:30:47.827Z,3.30
2022-10-29T12:33:24.548Z,4.50
2022-10-29T12:38:40.591Z,4.20
2022-10-29T12:41:20.336Z,3.40
2022-10-29T12:43:49.840Z,3.10
2022-10-29T12:46:32.941Z,3.43
2022-10-29T12:49:10.525Z,3.73
2022-10-29T12:51:51.118Z,3.50
2022-10-29T12:54:38.224Z,3.63
2022-10-29T12:57:24.475Z,3.70
2022-10-29T12:59:52.748Z,3.80
2022-10-29T13:02:31.277Z,3.50
2022-10-29T13:05:40.218Z,4.67
2022-10-29T13:08:36.167Z,3.23
2022-10-29T13:11:25.287Z,3.93
2022-10-29T13:14:01.345Z,4.60
2022-10-29T13:16:32.037Z,3.77
2022-10-29T13:19:38.980Z,3.90
2022-10-29T13:22:54.141Z,3.07
2022-10-29T13:25:49.818Z,3.50
2022-10-29T13:28:52.833Z,6.10
2022-10-29T13:31:50.267Z,4.00
2022-10-29T13:34:59.484Z,4.90
2022-10-29T13:37:51.661Z,4.10
2022-10-29T13:41:17.571Z,3.97
2022-10-29T13:43:59.817Z,3.77
2022-10-29T13:46:47.547Z,4.13
2022-10-29T13:49:23.226Z,4.43
2022-10-29T13:52:02.353Z,3.40
2022-10-29T13:54:39.449Z,3.87
2022-10-29T13:57:19.867Z,3.57
2022-10-29T13:59:57.995Z,3.90
2022-10-29T14:02:36.722Z,3.57
2022-10-29T14:05:17.140Z,3.27
2022-10-29T14:07:56.014Z,3.63
2022-10-29T14:13:18.060Z,3.93
2022-10-29T14:16:03.263Z,4.03
2022-10-29T14:18:34.429Z,3.70
2022-10-29T14:21:06.742Z,3.60
2022-10-29T14:23:35.356Z,4.13
2022-10-29T14:26:04.197Z,3.80
2022-10-29T14:28:34.568Z,4.17
2022-10-29T14:31:13.471Z,7.20
2022-10-29T14:33:43.344Z,5.53
2022-10-29T14:36:22.763Z,3.97
2022-10-29T14:38:55.233Z,4.17
2022-10-29T14:41:25.337Z,4.30
2022-10-29T14:44:03.685Z,4.13
2022-10-29T14:46:36.228Z,4.00
2022-10-29T14:49:16.373Z,4.40
2022-10-29T14:51:52.830Z,4.47
2022-10-29T14:54:27.478Z,4.67
2022-10-29T14:57:00.692Z,4.03
2022-10-29T14:59:32.546Z,4.40
2022-10-29T15:02:32.111Z,5.57
2022-10-29T15:05:04.610Z,4.87
2022-10-29T15:07:37.215Z,4.63
2022-10-29T15:10:22.194Z,4.50
2022-10-29T15:12:52.501Z,5.23
2022-10-29T15:15:28.230Z,5.27
2022-10-29T15:18:04.366Z,4.63
2022-10-29T15:20:44.766Z,4.50
2022-10-29T15:23:21.712Z,5.27
2022-10-29T15:25:53.436Z,4.23
2022-10-29T15:28:26.885Z,4.57
2022-10-29T15:30:55.276Z,5.30
2022-10-29T15:33:29.596Z,4.93
2022-10-29T15:36:02.208Z,4.93
2022-10-29T15:39:26.753Z,4.93
2022-10-29T15:41:59.199Z,8.00
2022-10-29T15:44:39.228Z,7.83
2022-10-29T15:47:27.486Z,5.87
2022-10-29T15:49:58.196Z,4.43
2022-10-29T15:52:32.849Z,4.90
2022-10-29T15:55:02.345Z,4.13
2022-10-29T15:57:31.466Z,4.53
2022-10-29T16:00:06.624Z,4.80
2022-10-29T16:02:35.010Z,4.73
2022-10-29T16:05:05.128Z,4.83
2022-10-29T16:07:33.949Z,5.10
2022-10-29T16:10:02.753Z,5.30
2022-10-29T16:12:31.886Z,4.63
2022-10-29T16:15:00.235Z,4.73
2022-10-29T16:17:30.216Z,4.27
2022-10-29T16:20:01.649Z,4.20
2022-10-29T16:22:31.812Z,5.10
2022-10-29T16:25:00.301Z,4.17
2022-10-29T16:27:28.611Z,4.43
2022-10-29T16:29:57.040Z,5.43
2022-10-29T16:32:26.376Z,4.60
2022-10-29T16:34:54.904Z,3.60
2022-10-29T16:37:23.445Z,4.40
2022-10-29T16:39:54.125Z,4.77
2022-10-29T16:42:33.334Z,4.50
2022-10-29T16:45:01.881Z,4.20
2022-10-29T16:47:30.475Z,4.87
2022-10-29T16:50:00.381Z,4.43
2022-10-29T16:52:29.801Z,4.70
2022-10-29T16:54:59.770Z,4.47
2022-10-29T16:57:29.449Z,4.80
2022-10-29T16:59:57.932Z,3.93
2022-10-29T17:02:26.452Z,4.53
2022-10-29T17:04:54.815Z,5.80
2022-10-29T17:07:23.879Z,4.10
2022-10-29T17:09:52.395Z,4.53
2022-10-29T17:12:23.420Z,3.33
2022-10-29T17:14:52.115Z,5.13
2022-10-29T17:17:20.453Z,4.03
2022-10-29T17:19:48.929Z,4.27
2022-10-29T17:22:17.668Z,5.00
2022-10-29T17:24:46.514Z,4.17
2022-10-29T17:27:15.380Z,5.23
2022-10-29T17:29:45.022Z,5.03
2022-10-29T17:32:13.417Z,4.17
2022-10-29T17:34:41.881Z,4.57
2022-10-29T17:37:11.412Z,4.63
2022-10-29T17:39:40.110Z,5.30
2022-10-29T17:42:08.566Z,5.07
2022-10-29T17:44:36.926Z,4.17
2022-10-29T17:47:06.996Z,6.97
2022-10-29T17:49:35.413Z,6.40
2022-10-29T17:52:04.456Z,4.87
2022-10-29T17:54:35.190Z,4.93
2022-10-29T17:57:03.830Z,5.00
2022-10-29T17:59:32.371Z,4.93
2022-10-29T18:02:00.786Z,5.47
2022-10-29T18:04:30.718Z,4.50
2022-10-29T18:06:59.576Z,4.70
2022-10-29T18:09:27.967Z,4.43
2022-10-29T18:11:56.505Z,4.60
2022-10-29T18:14:25.107Z,5.67
2022-10-29T18:16:53.520Z,4.47
2022-10-29T18:19:21.835Z,4.40
2022-10-29T18:21:51.584Z,4.53
2022-10-29T18:24:22.320Z,4.23
2022-10-29T18:26:51.241Z,5.30
2022-10-29T18:29:19.671Z,5.57
2022-10-29T18:31:48.035Z,5.17
2022-10-29T18:34:17.071Z,4.70
2022-10-29T18:36:47.499Z,4.83
2022-10-29T18:39:17.264Z,4.53
2022-10-29T18:41:45.728Z,7.20
2022-10-29T18:44:14.056Z,6.00
2022-10-29T18:46:42.430Z,5.60
2022-10-29T18:49:13.085Z,5.07
2022-10-29T18:51:42.806Z,6.20
2022-10-29T18:54:14.833Z,5.37
2022-10-29T18:56:44.636Z,5.60
2022-10-29T18:59:13.911Z,5.60
2022-10-29T19:01:42.587Z,5.37
2022-10-29T19:04:15.599Z,6.10
2022-10-29T19:06:44.502Z,5.60
2022-10-29T19:09:13.456Z,6.17
2022-10-29T19:11:42.211Z,6.27
2022-10-29T19:14:15.018Z,6.47
2022-10-29T19:16:43.712Z,5.80
2022-10-29T19:19:17.052Z,5.90
2022-10-29T19:21:48.161Z,6.67
2022-10-29T19:24:17.118Z,6.10
2022-10-29T19:26:45.907Z,6.83
2022-10-29T19:29:16.739Z,6.40
2022-10-29T19:31:47.552Z,7.27
2022-10-29T19:34:16.128Z,6.40
2022-10-29T19:36:44.543Z,7.03
2022-10-29T19:39:12.930Z,6.83
2022-10-29T19:41:41.459Z,6.03
2022-10-29T19:44:10.080Z,6.40
2022-10-29T19:46:40.266Z,6.93
2022-10-29T19:49:08.831Z,7.53
2022-10-29T19:51:37.240Z,6.90
2022-10-29T19:54:07.249Z,7.10
2022-10-29T19:56:35.674Z,7.10
2022-10-29T19:59:05.184Z,7.30
2022-10-29T20:01:33.918Z,7.53
2022-10-29T20:04:04.500Z,6.90
2022-10-29T20:06:32.936Z,6.90
2022-10-29T20:09:01.569Z,6.63
2022-10-29T20:11:30.277Z,6.30
2022-10-29T20:13:59.217Z,7.93
2022-10-29T20:16:27.738Z,8.60
2022-10-29T20:18:56.557Z,7.57
2022-10-29T20:21:26.465Z,6.80
2022-10-29T20:23:56.587Z,6.53
2022-10-29T20:26:24.936Z,6.60
2022-10-29T20:28:53.309Z,5.80
2022-10-29T20:31:32.188Z,6.20
2022-10-29T20:34:02.398Z,6.60
2022-10-29T20:36:34.287Z,6.23
2022-10-29T20:39:02.876Z,6.67
2022-10-29T20:41:31.965Z,6.20
2022-10-29T20:44:02.182Z,6.23
2022-10-29T20:46:30.951Z,6.37
2022-10-29T20:48:59.820Z,5.90
2022-10-29T20:51:28.890Z,10.00
2022-10-29T20:53:58.965Z,8.60
2022-10-29T20:56:28.664Z,6.90
2022-10-29T20:58:56.971Z,5.77
2022-10-29T21:01:26.204Z,10.53
2022-10-29T21:03:54.696Z,6.83
2022-10-29T21:06:23.978Z,5.93
2022-10-29T21:08:53.657Z,6.27
2022-10-29T21:11:24.829Z,6.10
2022-10-29T21:13:53.188Z,6.37
2022-10-29T21:16:24.685Z,6.43
2022-10-29T21:18:55.498Z,6.97
2022-10-29T21:21:24.270Z,6.13
2022-10-29T21:23:52.757Z,5.90
2022-10-29T21:26:24.887Z,6.80
2022-10-29T21:28:54.612Z,6.03
2022-10-29T21:31:25.135Z,6.27
2022-10-29T21:33:54.538Z,5.77
2022-10-29T21:36:23.816Z,6.80
2022-10-29T21:38:52.262Z,6.60
2022-10-29T21:41:22.056Z,5.97
2022-10-29T21:43:50.477Z,7.40
2022-10-29T21:46:18.931Z,7.00
2022-10-29T21:48:47.319Z,6.57
2022-10-29T21:51:17.219Z,6.07
2022-10-29T21:53:45.814Z,6.80
2022-10-29T21:56:15.996Z,5.90
2022-10-29T21:58:45.868Z,7.60
2022-10-29T22:01:16.243Z,9.00
2022-10-29T22:03:47.126Z,6.33
2022-10-29T22:06:17.794Z,7.20
2022-10-29T22:08:47.403Z,6.57
2022-10-29T22:11:16.686Z,7.00
2022-10-29T22:13:46.273Z,6.30
2022-10-29T22:16:14.835Z,7.70
2022-10-29T22:18:43.267Z,6.00
2022-10-29T22:21:14.516Z,6.20
2022-10-29T22:23:44.765Z,6.57
2022-10-29T22:26:13.738Z,8.30
2022-10-29T22:28:42.304Z,7.40
2022-10-29T22:31:12.656Z,7.13
2022-10-29T22:33:41.338Z,7.27
2022-10-29T22:36:13.009Z,6.67
2022-10-29T22:38:41.753Z,6.70
2022-10-29T22:41:15.437Z,6.13
2022-10-29T22:43:44.933Z,6.73
2022-10-29T22:46:17.750Z,6.47
2022-10-29T22:48:46.586Z,7.47
2022-10-29T22:51:17.498Z,6.20
2022-10-29T22:53:47.123Z,6.97
2022-10-29T22:56:16.727Z,6.33
2022-10-29T22:58:45.258Z,9.37
2022-10-29T23:01:17.548Z,7.77
2022-10-29T23:03:46.269Z,7.30
2022-10-29T23:06:16.965Z,6.80
2022-10-29T23:08:46.042Z,7.00
2022-10-29T23:11:19.602Z,7.47
2022-10-29T23:13:49.364Z,7.00
2022-10-29T23:16:19.207Z,7.87
2022-10-29T23:18:50.450Z,7.63
2022-10-29T23:21:19.816Z,6.90
2022-10-29T23:23:49.740Z,8.10
2022-10-29T23:26:19.091Z,8.43
2022-10-29T23:28:48.887Z,8.27
2022-10-29T23:31:21.734Z,7.40
2022-10-29T23:33:52.495Z,8.83
2022-10-29T23:36:23.040Z,7.10
2022-10-29T23:38:56.784Z,7.50
2022-10-29T23:41:25.529Z,7.40
2022-10-29T23:43:53.945Z,7.63
2022-10-29T23:46:24.153Z,6.43
2022-10-29T23:48:52.491Z,8.03
2022-10-29T23:51:21.096Z,6.37
2022-10-29T23:53:53.145Z,7.53
2022-10-29T23:56:25.480Z,6.23
2022-10-29T23:58:53.893Z,6.50
